createdAt,value
2018-09-20T00:00:57.296Z,22.77
2018-09-20T00:03:25.829Z,24.47
2018-09-20T00:05:54.407Z,24.33
2018-09-20T00:08:23.875Z,31.33
2018-09-20T00:10:52.287Z,56.70
2018-09-20T00:13:20.751Z,68.87
2018-09-20T00:15:49.389Z,71.10
2018-09-20T00:18:17.848Z,60.23
2018-09-20T00:20:46.336Z,49.13
2018-09-20T00:23:14.854Z,36.90
2018-09-20T00:25:43.343Z,37.57
2018-09-20T00:28:11.874Z,32.60
2018-09-20T00:30:40.403Z,26.83
2018-09-20T00:33:09.682Z,23.07
2018-09-20T00:35:38.176Z,22.20
2018-09-20T00:38:06.732Z,19.63
2018-09-20T00:40:35.225Z,19.37
2018-09-20T00:43:03.676Z,17.07
2018-09-20T00:45:32.195Z,13.97
2018-09-20T00:48:01.342Z,15.63
2018-09-20T00:50:30.184Z,16.50
2018-09-20T00:52:58.615Z,19.63
2018-09-20T00:55:27.104Z,16.63
2018-09-20T00:57:55.784Z,18.20
2018-09-20T01:00:24.274Z,19.63
2018-09-20T01:02:53.152Z,22.03
2018-09-20T01:05:21.696Z,30.47
2018-09-20T01:07:50.232Z,19.20
2018-09-20T01:10:19.305Z,18.60
2018-09-20T01:12:47.840Z,16.33
2018-09-20T01:15:16.342Z,16.70
2018-09-20T01:17:44.803Z,13.67
2018-09-20T01:20:13.285Z,14.97
2018-09-20T01:22:42.637Z,14.17
2018-09-20T01:25:11.096Z,12.57
2018-09-20T01:27:39.675Z,11.57
2018-09-20T01:30:08.221Z,7.50
2018-09-20T01:32:36.668Z,7.60
2018-09-20T01:35:06.105Z,18.20
2018-09-20T01:37:34.828Z,35.50
2018-09-20T01:40:03.288Z,62.03
2018-09-20T01:42:31.831Z,61.47
2018-09-20T01:45:00.327Z,60.23
2018-09-20T01:47:28.762Z,89.13
2018-09-20T01:49:57.297Z,80.07
2018-09-20T01:52:25.746Z,76.60
2018-09-20T01:54:54.282Z,69.70
2018-09-20T01:57:23.551Z,63.07
2018-09-20T01:59:52.070Z,60.87
2018-09-20T02:02:21.528Z,38.17
2018-09-20T02:04:50.096Z,34.77
2018-09-20T02:07:18.564Z,36.13
2018-09-20T02:09:47.108Z,31.00
2018-09-20T02:12:15.531Z,26.47
2018-09-20T02:14:44.156Z,23.50
2018-09-20T02:17:12.619Z,27.60
2018-09-20T02:19:41.094Z,22.77
2018-09-20T02:22:09.688Z,21.50
2018-09-20T02:24:38.119Z,20.00
2018-09-20T02:27:06.888Z,16.87
2018-09-20T02:29:35.388Z,18.60
2018-09-20T02:32:03.949Z,21.97
2018-09-20T02:34:32.459Z,26.97
2018-09-20T02:37:00.987Z,18.37
2018-09-20T02:39:29.493Z,18.90
2018-09-20T02:41:58.926Z,19.13
2018-09-20T02:44:28.141Z,17.17
2018-09-20T02:46:56.709Z,11.93
2018-09-20T02:49:27.127Z,15.13
2018-09-20T02:51:55.638Z,12.80
2018-09-20T02:54:24.318Z,15.13
2018-09-20T02:56:52.858Z,16.60
2018-09-20T02:59:21.412Z,16.30
2018-09-20T03:01:50.325Z,13.47
2018-09-20T03:04:19.410Z,10.63
2018-09-20T03:06:48.015Z,12.03
2018-09-20T03:09:18.886Z,38.13
2018-09-20T03:11:47.340Z,43.73
2018-09-20T03:14:15.900Z,32.70
2018-09-20T03:16:45.199Z,29.47
2018-09-20T03:19:13.739Z,36.57
2018-09-20T03:21:42.208Z,42.87
2018-09-20T03:24:11.462Z,55.13
2018-09-20T03:26:40.076Z,46.73
2018-09-20T03:29:08.564Z,43.43
2018-09-20T03:31:37.541Z,32.03
2018-09-20T03:34:06.069Z,26.97
2018-09-20T03:36:34.625Z,22.07
2018-09-20T03:39:03.392Z,24.30
2018-09-20T03:41:32.099Z,23.87
2018-09-20T03:44:00.611Z,27.90
2018-09-20T03:46:29.354Z,27.20
2018-09-20T03:48:57.960Z,30.50
2018-09-20T03:51:26.527Z,29.33
2018-09-20T03:53:55.081Z,25.63
2018-09-20T03:56:23.593Z,21.87
2018-09-20T03:58:52.168Z,24.30
2018-09-20T04:01:20.677Z,18.27
2018-09-20T04:03:49.253Z,17.30
2018-09-20T04:06:17.763Z,18.27
2018-09-20T04:08:46.329Z,15.80
2018-09-20T04:11:14.830Z,16.20
2018-09-20T04:13:43.372Z,18.63
2018-09-20T04:16:12.083Z,16.80
2018-09-20T04:18:41.081Z,16.97
2018-09-20T04:21:09.680Z,15.87
2018-09-20T04:23:38.410Z,10.37
2018-09-20T04:26:07.260Z,14.77
2018-09-20T04:28:35.793Z,12.43
2018-09-20T04:31:04.391Z,11.40
2018-09-20T04:33:32.913Z,10.53
2018-09-20T04:36:01.512Z,14.13
2018-09-20T04:38:30.085Z,13.17
2018-09-20T04:40:58.752Z,25.47
2018-09-20T04:43:27.380Z,27.90
2018-09-20T04:45:55.915Z,24.60
2018-09-20T04:48:24.613Z,32.23
2018-09-20T04:50:53.256Z,33.03
2018-09-20T04:53:21.900Z,29.07
2018-09-20T04:55:50.465Z,26.43
2018-09-20T04:58:19.572Z,25.67
2018-09-20T05:00:48.096Z,18.50
2018-09-20T05:05:59.827Z,22.43
2018-09-20T05:08:28.913Z,22.93
2018-09-20T05:10:57.463Z,21.37
2018-09-20T05:13:26.469Z,20.73
2018-09-20T05:15:55.094Z,19.47
2018-09-20T05:18:23.680Z,20.93
2018-09-20T05:20:52.512Z,15.50
2018-09-20T05:23:21.054Z,13.70
2018-09-20T05:25:49.563Z,12.93
2018-09-20T05:28:18.215Z,12.37
2018-09-20T05:30:47.771Z,11.67
2018-09-20T05:33:16.340Z,12.20
2018-09-20T05:35:44.943Z,14.33
2018-09-20T05:38:13.472Z,13.67
2018-09-20T05:40:42.071Z,11.13
2018-09-20T05:43:10.594Z,11.90
2018-09-20T05:45:39.194Z,11.07
2018-09-20T05:48:08.419Z,12.10
2018-09-20T05:50:37.269Z,12.03
2018-09-20T05:53:06.990Z,10.03
2018-09-20T05:55:35.621Z,9.17
2018-09-20T05:58:04.254Z,9.77
2018-09-20T06:00:33.419Z,10.73
2018-09-20T06:03:02.188Z,12.00
2018-09-20T06:05:30.969Z,14.53
2018-09-20T06:07:59.699Z,11.13
2018-09-20T06:10:28.257Z,12.10
2018-09-20T06:12:56.902Z,12.27
2018-09-20T06:15:25.503Z,12.97
2018-09-20T06:17:54.046Z,13.60
2018-09-20T06:20:22.609Z,14.73
2018-09-20T06:22:51.172Z,12.60
2018-09-20T06:25:19.680Z,11.93
2018-09-20T06:27:51.173Z,12.73
2018-09-20T06:30:19.730Z,14.43
2018-09-20T06:32:48.464Z,12.07
2018-09-20T06:35:17.226Z,14.03
2018-09-20T06:37:45.777Z,10.37
2018-09-20T06:40:14.330Z,11.40
2018-09-20T06:42:42.850Z,10.50
2018-09-20T06:45:11.366Z,10.23
2018-09-20T06:47:39.882Z,12.03
2018-09-20T06:50:09.152Z,9.13
2018-09-20T06:52:37.687Z,9.97
2018-09-20T06:55:06.215Z,11.27
2018-09-20T06:57:34.632Z,9.87
2018-09-20T07:00:34.004Z,11.60
2018-09-20T07:03:03.172Z,10.47
2018-09-20T07:05:31.568Z,13.03
2018-09-20T07:08:00.003Z,12.17
2018-09-20T07:10:28.523Z,13.07
2018-09-20T07:12:56.939Z,11.60
2018-09-20T07:15:25.480Z,11.73
2018-09-20T07:17:54.107Z,11.07
2018-09-20T07:20:22.589Z,10.70
2018-09-20T07:22:51.036Z,10.97
2018-09-20T07:25:19.801Z,12.17
2018-09-20T07:27:48.171Z,14.47
2018-09-20T07:30:16.626Z,13.57
2018-09-20T07:32:45.095Z,14.40
2018-09-20T07:35:13.478Z,11.90
2018-09-20T07:37:41.976Z,11.13
2018-09-20T07:40:11.153Z,14.40
2018-09-20T07:42:39.547Z,11.13
2018-09-20T07:45:08.044Z,15.57
2018-09-20T07:47:36.529Z,10.37
2018-09-20T07:50:05.024Z,11.63
2018-09-20T07:52:33.708Z,9.03
2018-09-20T07:55:02.416Z,12.17
2018-09-20T07:57:31.356Z,11.90
2018-09-20T08:00:01.328Z,10.57
2018-09-20T08:02:29.815Z,13.87
2018-09-20T08:04:58.882Z,11.40
2018-09-20T08:07:27.634Z,9.73
2018-09-20T08:09:56.106Z,17.60
2018-09-20T08:12:25.018Z,11.00
2018-09-20T08:14:53.489Z,9.17
2018-09-20T08:17:21.983Z,10.27
2018-09-20T08:19:50.466Z,11.07
2018-09-20T08:22:18.902Z,6.83
2018-09-20T08:24:47.442Z,8.73
2018-09-20T08:27:15.884Z,8.40
2018-09-20T08:29:44.725Z,11.00
2018-09-20T08:32:13.264Z,10.53
2018-09-20T08:34:41.769Z,9.60
2018-09-20T08:37:11.125Z,8.70
2018-09-20T08:39:39.607Z,11.23
2018-09-20T08:42:08.228Z,9.10
2018-09-20T08:44:36.683Z,6.63
2018-09-20T08:47:05.309Z,9.83
2018-09-20T08:49:33.882Z,10.43
2018-09-20T08:52:02.387Z,8.27
2018-09-20T08:54:30.908Z,8.97
2018-09-20T08:56:59.460Z,8.60
2018-09-20T08:59:28.733Z,6.43
2018-09-20T09:01:57.180Z,9.87
2018-09-20T09:04:25.638Z,9.50
2018-09-20T09:06:54.116Z,8.70
2018-09-20T09:09:22.539Z,6.77
2018-09-20T09:11:52.019Z,7.60
2018-09-20T09:14:20.504Z,8.20
2018-09-20T09:16:49.020Z,7.73
2018-09-20T09:19:18.386Z,10.43
2018-09-20T09:21:46.834Z,7.40
2018-09-20T09:24:15.281Z,8.10
2018-09-20T09:26:43.896Z,7.93
2018-09-20T09:29:12.398Z,6.87
2018-09-20T09:31:40.904Z,8.53
2018-09-20T09:34:09.579Z,8.47
2018-09-20T09:36:38.085Z,8.40
2018-09-20T09:39:09.343Z,9.30
2018-09-20T09:41:37.844Z,9.33
2018-09-20T09:44:06.504Z,9.23
2018-09-20T09:46:34.965Z,12.27
2018-09-20T09:49:04.196Z,10.30
2018-09-20T09:51:32.698Z,8.00
2018-09-20T09:54:01.319Z,9.53
2018-09-20T09:56:30.037Z,8.57
2018-09-20T09:58:59.796Z,10.47
2018-09-20T10:01:28.259Z,6.90
2018-09-20T10:03:57.459Z,7.40
2018-09-20T10:06:26.042Z,9.53
2018-09-20T10:08:55.597Z,5.90
2018-09-20T10:11:24.168Z,9.20
2018-09-20T10:13:52.663Z,11.13
2018-09-20T10:16:21.095Z,8.27
2018-09-20T10:18:49.729Z,8.23
2018-09-20T10:21:18.196Z,7.80
2018-09-20T10:23:46.744Z,8.50
2018-09-20T10:26:15.162Z,9.70
2018-09-20T10:28:43.672Z,6.47
2018-09-20T10:31:12.122Z,7.33
2018-09-20T10:33:40.636Z,5.67
2018-09-20T10:36:09.234Z,9.63
2018-09-20T10:38:37.712Z,8.23
2018-09-20T10:41:06.300Z,10.07
2018-09-20T10:43:34.809Z,8.33
2018-09-20T10:46:03.299Z,9.40
2018-09-20T10:48:31.880Z,9.10
2018-09-20T10:51:00.357Z,9.20
2018-09-20T10:53:28.876Z,10.53
2018-09-20T10:55:57.308Z,10.23
2018-09-20T10:58:25.824Z,8.47
2018-09-20T11:00:54.309Z,6.47
2018-09-20T11:03:23.669Z,5.43
2018-09-20T11:05:52.078Z,7.30
2018-09-20T11:08:20.565Z,8.07
2018-09-20T11:10:49.101Z,8.50
2018-09-20T11:13:17.558Z,9.40
2018-09-20T11:15:46.057Z,8.10
2018-09-20T11:18:14.530Z,9.23
2018-09-20T11:20:43.576Z,6.77
2018-09-20T11:23:12.044Z,7.33
2018-09-20T11:25:40.512Z,9.37
2018-09-20T11:28:08.952Z,6.30
2018-09-20T11:30:37.392Z,7.27
2018-09-20T11:33:05.917Z,7.93
2018-09-20T11:35:34.332Z,16.83
2018-09-20T11:38:02.748Z,6.07
2018-09-20T11:40:31.261Z,9.63
2018-09-20T11:42:59.659Z,5.23
2018-09-20T11:45:28.090Z,7.77
2018-09-20T11:47:56.636Z,7.33
2018-09-20T11:50:25.091Z,7.30
2018-09-20T11:52:53.608Z,6.70
2018-09-20T11:55:22.062Z,7.67
2018-09-20T11:57:51.407Z,7.10
2018-09-20T12:00:20.831Z,9.97
2018-09-20T12:02:50.259Z,6.50
2018-09-20T12:05:19.009Z,8.07
2018-09-20T12:07:47.463Z,6.43
2018-09-20T12:10:16.201Z,8.23
2018-09-20T12:12:44.615Z,8.17
2018-09-20T12:15:13.126Z,8.53
2018-09-20T12:17:41.567Z,6.87
2018-09-20T12:20:11.349Z,12.13
2018-09-20T12:22:39.784Z,8.50
2018-09-20T12:25:08.292Z,7.53
2018-09-20T12:27:36.993Z,6.07
2018-09-20T12:30:06.085Z,5.37
2018-09-20T12:32:34.507Z,8.90
2018-09-20T12:35:03.183Z,7.60
2018-09-20T12:37:38.097Z,8.77
2018-09-20T12:40:07.914Z,8.67
2018-09-20T12:42:36.350Z,5.17
2018-09-20T12:45:05.137Z,6.23
2018-09-20T12:47:34.435Z,6.57
2018-09-20T12:50:02.954Z,7.63
2018-09-20T12:52:32.252Z,7.53
2018-09-20T12:55:00.733Z,8.83
2018-09-20T12:57:29.292Z,7.50
2018-09-20T12:59:57.979Z,7.03
2018-09-20T13:02:26.569Z,8.67
2018-09-20T13:04:55.101Z,6.07
2018-09-20T13:07:23.583Z,6.63
2018-09-20T13:09:52.076Z,7.33
2018-09-20T13:12:20.846Z,7.33
2018-09-20T13:14:49.522Z,7.63
2018-09-20T13:17:17.986Z,9.10
2018-09-20T13:19:46.418Z,7.33
2018-09-20T13:22:14.873Z,5.53
2018-09-20T13:24:43.388Z,7.23
2018-09-20T13:27:12.220Z,7.93
2018-09-20T13:29:41.432Z,7.60
2018-09-20T13:32:10.821Z,8.07
2018-09-20T13:34:39.301Z,9.93
2018-09-20T13:37:07.762Z,8.23
2018-09-20T13:39:36.230Z,8.63
2018-09-20T13:42:04.664Z,6.20
2018-09-20T13:44:33.140Z,6.37
2018-09-20T13:47:01.660Z,8.00
2018-09-20T13:49:30.779Z,5.73
2018-09-20T13:51:59.191Z,6.80
2018-09-20T13:54:27.657Z,6.87
2018-09-20T13:56:56.120Z,7.67
2018-09-20T13:59:24.613Z,8.23
2018-09-20T14:01:53.110Z,6.13
2018-09-20T14:04:21.608Z,8.33
2018-09-20T14:06:50.418Z,6.40
2018-09-20T14:09:18.883Z,6.67
2018-09-20T14:11:47.520Z,5.87
2018-09-20T14:14:15.917Z,6.40
2018-09-20T14:16:45.576Z,7.30
2018-09-20T14:19:14.090Z,7.97
2018-09-20T14:21:43.214Z,6.37
2018-09-20T14:24:12.575Z,8.37
2018-09-20T14:26:41.044Z,6.33
2018-09-20T14:29:09.547Z,7.80
2018-09-20T14:31:38.079Z,6.27
2018-09-20T14:34:07.155Z,12.50
2018-09-20T14:36:35.690Z,7.83
2018-09-20T14:39:04.800Z,7.40
2018-09-20T14:41:33.260Z,7.70
2018-09-20T14:44:01.752Z,8.53
2018-09-20T14:46:30.300Z,7.77
2018-09-20T14:48:58.751Z,5.93
2018-09-20T14:51:27.437Z,8.30
2018-09-20T14:53:56.084Z,9.13
2018-09-20T14:56:24.662Z,5.93
2018-09-20T14:58:53.322Z,6.13
2018-09-20T15:01:21.843Z,9.33
2018-09-20T15:03:50.363Z,9.37
2018-09-20T15:06:18.910Z,6.43
2018-09-20T15:08:47.355Z,8.50
2018-09-20T15:11:16.420Z,6.97
2018-09-20T15:13:44.876Z,9.20
2018-09-20T15:16:13.317Z,6.73
2018-09-20T15:18:41.788Z,8.07
2018-09-20T15:21:10.316Z,7.87
2018-09-20T15:23:38.800Z,8.57
2018-09-20T15:26:08.021Z,10.23
2018-09-20T15:28:36.466Z,6.17
2018-09-20T15:31:04.970Z,8.13
2018-09-20T15:33:33.413Z,8.07
2018-09-20T15:36:01.875Z,6.17
2018-09-20T15:38:30.684Z,7.13
2018-09-20T15:40:59.836Z,6.43
2018-09-20T15:43:28.255Z,7.77
2018-09-20T15:45:56.768Z,8.67
2018-09-20T15:48:25.192Z,10.40
2018-09-20T15:50:54.119Z,6.33
2018-09-20T15:53:22.534Z,5.83
2018-09-20T15:55:51.173Z,6.50
2018-09-20T15:58:19.691Z,7.47
2018-09-20T16:00:48.595Z,8.97
2018-09-20T16:03:17.038Z,7.93
2018-09-20T16:05:45.592Z,8.97
2018-09-20T16:08:14.024Z,7.73
2018-09-20T16:10:43.313Z,7.53
2018-09-20T16:13:11.793Z,8.50
2018-09-20T16:15:40.263Z,11.03
2018-09-20T16:18:08.686Z,8.47
2018-09-20T16:20:37.182Z,8.23
2018-09-20T16:23:05.568Z,8.97
2018-09-20T16:25:35.069Z,8.30
2018-09-20T16:28:10.608Z,7.40
2018-09-20T16:31:53.057Z,7.20
2018-09-20T16:35:32.487Z,7.23
2018-09-20T16:38:11.616Z,9.43
2018-09-20T16:40:42.975Z,7.87
2018-09-20T16:43:11.496Z,6.83
2018-09-20T16:45:40.644Z,14.57
2018-09-20T16:48:09.796Z,14.20
2018-09-20T16:50:38.233Z,15.07
2018-09-20T16:53:06.744Z,9.73
2018-09-20T16:55:35.182Z,11.80
2018-09-20T16:58:03.634Z,9.17
2018-09-20T17:00:32.618Z,7.03
2018-09-20T17:03:01.084Z,7.60
2018-09-20T17:05:30.191Z,5.73
2018-09-20T17:07:58.647Z,8.33
2018-09-20T17:10:27.081Z,7.67
2018-09-20T17:12:55.575Z,8.70
2018-09-20T17:15:24.045Z,8.03
2018-09-20T17:17:52.653Z,9.63
2018-09-20T17:20:21.079Z,8.97
2018-09-20T17:22:51.313Z,9.07
2018-09-20T17:25:19.736Z,8.00
2018-09-20T17:27:48.190Z,11.37
2018-09-20T17:30:16.674Z,14.80
2018-09-20T17:32:45.112Z,8.10
2018-09-20T17:35:13.856Z,11.53
2018-09-20T17:37:43.476Z,8.40
2018-09-20T17:40:12.367Z,12.80
2018-09-20T17:42:41.644Z,11.00
2018-09-20T17:45:10.156Z,25.40
2018-09-20T17:47:38.639Z,7.23
2018-09-20T17:50:07.115Z,8.33
2018-09-20T17:52:36.096Z,9.03
2018-09-20T17:55:05.044Z,6.57
2018-09-20T17:57:35.661Z,8.10
2018-09-20T18:00:04.905Z,6.33
2018-09-20T18:02:33.489Z,7.73
2018-09-20T18:05:05.221Z,7.23
2018-09-20T18:07:33.912Z,7.87
2018-09-20T18:10:02.459Z,9.97
2018-09-20T18:12:31.491Z,10.20
2018-09-20T18:15:00.589Z,7.67
2018-09-20T18:17:29.244Z,8.43
2018-09-20T18:19:57.687Z,9.27
2018-09-20T18:22:26.172Z,7.47
2018-09-20T18:24:54.699Z,7.40
2018-09-20T18:27:23.191Z,7.03
2018-09-20T18:29:51.624Z,8.43
2018-09-20T18:32:20.040Z,8.43
2018-09-20T18:34:49.448Z,10.10
2018-09-20T18:37:17.918Z,8.37
2018-09-20T18:39:46.330Z,7.37
2018-09-20T18:42:14.835Z,10.37
2018-09-20T18:44:43.368Z,7.43
2018-09-20T18:47:12.473Z,8.70
2018-09-20T18:49:40.972Z,9.40
2018-09-20T18:52:09.436Z,10.67
2018-09-20T18:54:37.879Z,6.83
2018-09-20T18:57:06.325Z,10.03
2018-09-20T18:59:34.756Z,7.23
2018-09-20T19:02:03.199Z,8.70
2018-09-20T19:04:31.827Z,6.67
2018-09-20T19:07:01.119Z,8.93
2018-09-20T19:09:30.043Z,7.80
2018-09-20T19:11:58.661Z,8.83
2018-09-20T19:14:27.112Z,9.63
2018-09-20T19:16:55.580Z,7.40
2018-09-20T19:19:24.327Z,7.07
2018-09-20T19:21:52.880Z,10.07
2018-09-20T19:24:21.408Z,9.27
2018-09-20T19:26:50.808Z,9.20
2018-09-20T19:29:19.263Z,8.20
2018-09-20T19:31:47.721Z,6.30
2018-09-20T19:34:16.291Z,10.73
2018-09-20T19:36:45.500Z,11.53
2018-09-20T19:39:14.099Z,10.47
2018-09-20T19:41:42.551Z,8.10
2018-09-20T19:44:11.114Z,6.60
2018-09-20T19:46:39.968Z,6.70
2018-09-20T19:49:08.401Z,7.43
2018-09-20T19:51:36.867Z,12.53
2018-09-20T19:54:06.166Z,8.03
2018-09-20T19:56:35.086Z,10.73
2018-09-20T19:59:03.499Z,8.97
2018-09-20T20:01:32.035Z,7.57
2018-09-20T20:04:00.500Z,8.03
2018-09-20T20:06:28.968Z,10.37
2018-09-20T20:08:57.449Z,10.30
2018-09-20T20:11:25.919Z,10.67
2018-09-20T20:13:55.283Z,8.07
2018-09-20T20:16:24.120Z,9.10
2018-09-20T20:18:52.528Z,8.90
2018-09-20T20:21:20.952Z,6.57
2018-09-20T20:23:49.412Z,8.33
2018-09-20T20:26:17.871Z,10.80
2018-09-20T20:28:46.371Z,9.17
2018-09-20T20:31:14.795Z,7.00
2018-09-20T20:33:43.244Z,8.63
2018-09-20T20:36:11.720Z,9.27
2018-09-20T20:38:40.140Z,9.33
2018-09-20T20:41:08.586Z,9.73
2018-09-20T20:43:36.999Z,8.97
2018-09-20T20:46:05.471Z,7.50
2018-09-20T20:48:33.877Z,6.50
2018-09-20T20:51:02.305Z,7.67
2018-09-20T20:53:30.734Z,8.87
2018-09-20T20:55:59.167Z,8.13
2018-09-20T20:58:27.623Z,6.23
2018-09-20T21:00:56.103Z,8.70
2018-09-20T21:03:24.541Z,8.60
2018-09-20T21:05:53.963Z,8.40
2018-09-20T21:08:22.578Z,9.97
2018-09-20T21:10:51.111Z,9.00
2018-09-20T21:13:19.529Z,8.67
2018-09-20T21:15:48.025Z,10.13
2018-09-20T21:18:16.500Z,8.30
2018-09-20T21:20:45.021Z,8.80
2018-09-20T21:23:13.829Z,9.47
2018-09-20T21:25:42.900Z,10.00
2018-09-20T21:28:11.392Z,7.40
2018-09-20T21:30:39.868Z,7.70
2018-09-20T21:33:08.319Z,7.83
2018-09-20T21:35:36.796Z,8.73
2018-09-20T21:38:05.384Z,7.57
2018-09-20T21:40:33.834Z,9.20
2018-09-20T21:43:02.311Z,9.77
2018-09-20T21:45:30.788Z,11.17
2018-09-20T21:47:59.277Z,8.33
2018-09-20T21:50:27.891Z,9.63
2018-09-20T21:52:56.300Z,8.37
2018-09-20T21:55:24.834Z,7.33
2018-09-20T21:57:53.319Z,9.53
2018-09-20T22:00:21.923Z,9.80
2018-09-20T22:02:55.664Z,8.97
2018-09-20T22:05:24.321Z,9.37
2018-09-20T22:07:53.025Z,7.43
2018-09-20T22:10:22.049Z,9.80
2018-09-20T22:12:50.498Z,7.90
2018-09-20T22:15:25.611Z,10.50
2018-09-20T22:17:55.312Z,8.70
2018-09-20T22:20:24.995Z,9.57
2018-09-20T22:22:53.591Z,12.43
2018-09-20T22:25:22.167Z,8.80
2018-09-20T22:27:50.618Z,10.27
2018-09-20T22:30:20.181Z,9.40
2018-09-20T22:32:48.866Z,7.30
2018-09-20T22:35:17.393Z,9.07
2018-09-20T22:37:46.585Z,7.07
2018-09-20T22:40:15.013Z,8.90
2018-09-20T22:42:43.477Z,11.10
2018-09-20T22:45:12.310Z,8.13
2018-09-20T22:47:40.800Z,9.17
2018-09-20T22:50:09.241Z,7.93
2018-09-20T22:52:37.690Z,9.20
2018-09-20T22:55:08.753Z,9.53
2018-09-20T22:57:37.197Z,7.97
2018-09-20T23:00:05.672Z,8.73
2018-09-20T23:02:34.092Z,8.60
2018-09-20T23:05:02.588Z,9.97
2018-09-20T23:07:31.091Z,10.43
2018-09-20T23:09:59.499Z,8.10
2018-09-20T23:12:28.027Z,8.10
2018-09-20T23:14:56.618Z,10.00
2018-09-20T23:17:25.364Z,9.00
2018-09-20T23:19:53.982Z,11.97
2018-09-20T23:22:22.472Z,11.50
2018-09-20T23:24:50.907Z,9.80
2018-09-20T23:27:19.356Z,10.40
2018-09-20T23:29:47.790Z,10.97
2018-09-20T23:32:16.307Z,8.90
2018-09-20T23:34:45.313Z,8.30
2018-09-20T23:37:13.788Z,10.03
2018-09-20T23:39:42.214Z,9.20
2018-09-20T23:42:10.724Z,7.53
2018-09-20T23:44:39.209Z,8.43
2018-09-20T23:47:08.486Z,10.97
2018-09-20T23:49:37.051Z,10.47
2018-09-20T23:52:05.556Z,9.60
2018-09-20T23:54:34.740Z,10.63
2018-09-20T23:57:03.260Z,12.90
2018-09-20T23:59:31.874Z,8.40
